Time;durP1;ratioP1;P1;durP2;ratioP2;P2;SDS_P1;SDS_P2;PMS_P1;PMS_P2;Temp;Humidity;BMP_temperature;BMP_pressure;BME280_temperature;BME280_humidity;BME280_pressure;Samples;Min_cycle;Max_cycle;Signal;HPM_P1;HPM_P2
2023/08/19 00:00:59;;;;;;;6.32;3.53;;;21.70;78.90;;;;;;5007151;28;20091;-61
2023/08/19 00:03:25;;;;;;;4.15;3.47;;;21.60;78.90;;;;;;5010377;28;20034;-62
2023/08/19 00:05:51;;;;;;;5.13;3.53;;;21.60;78.90;;;;;;5005043;28;20515;-62
2023/08/19 00:08:17;;;;;;;4.10;3.28;;;21.50;79.00;;;;;;5012711;28;20026;-63
2023/08/19 00:10:43;;;;;;;6.28;3.15;;;21.50;79.10;;;;;;5004360;28;20049;-62
2023/08/19 00:13:09;;;;;;;6.55;3.65;;;21.50;78.90;;;;;;5007332;28;20038;-59
2023/08/19 00:15:35;;;;;;;6.45;3.25;;;21.50;79.00;;;;;;5006676;28;20030;-62
2023/08/19 00:18:01;;;;;;;4.35;3.22;;;21.50;79.00;;;;;;5011578;28;20042;-63
2023/08/19 00:20:28;;;;;;;3.85;3.35;;;21.40;79.00;;;;;;5005190;28;20038;-62
2023/08/19 00:22:57;;;;;;;4.55;3.38;;;21.30;79.20;;;;;;5007612;28;20115;-66
2023/08/19 00:25:23;;;;;;;8.10;3.58;;;21.30;79.90;;;;;;5007039;28;20104;-62
2023/08/19 00:27:49;;;;;;;8.07;3.80;;;21.20;79.80;;;;;;5010749;28;20527;-63
2023/08/19 00:30:14;;;;;;;6.30;3.13;;;21.20;79.90;;;;;;5005416;28;20043;-63
2023/08/19 00:32:40;;;;;;;4.85;2.90;;;21.10;79.90;;;;;;5007271;28;20347;-62
2023/08/19 00:35:06;;;;;;;5.28;3.30;;;21.10;80.00;;;;;;5010364;28;21683;-63
2023/08/19 00:37:32;;;;;;;5.15;3.17;;;21.10;80.10;;;;;;4986535;28;20056;-63
2023/08/19 00:39:58;;;;;;;5.43;3.40;;;21.00;80.20;;;;;;5005269;28;20041;-63
2023/08/19 00:42:23;;;;;;;6.47;3.83;;;20.90;80.40;;;;;;5003830;28;20049;-63
2023/08/19 00:44:49;;;;;;;5.68;3.63;;;20.90;80.70;;;;;;5007257;28;20073;-62
2023/08/19 00:47:15;;;;;;;4.65;3.50;;;20.80;80.70;;;;;;5005963;28;20148;-62
2023/08/19 00:49:41;;;;;;;6.40;3.70;;;20.80;80.60;;;;;;5008949;28;20474;-63
2023/08/19 00:52:07;;;;;;;6.18;3.88;;;20.80;80.80;;;;;;5006469;28;20171;-62
2023/08/19 00:54:33;;;;;;;5.43;3.35;;;20.80;80.80;;;;;;5002844;28;20424;-63
2023/08/19 00:56:59;;;;;;;4.38;3.63;;;20.70;80.80;;;;;;5004363;28;20033;-62
2023/08/19 00:59:26;;;;;;;7.30;3.70;;;20.80;81.00;;;;;;5002990;28;20040;-64
2023/08/19 01:01:51;;;;;;;6.50;3.88;;;20.70;81.10;;;;;;4999446;28;20782;-62
2023/08/19 01:04:18;;;;;;;6.75;3.90;;;20.70;82.00;;;;;;5007140;28;20037;-62
2023/08/19 01:07:24;;;;;;;4.90;3.75;;;20.70;81.30;;;;;;5010608;28;20113;-62
2023/08/19 01:10:00;;;;;;;4.65;3.85;;;20.60;82.60;;;;;;5004646;28;20037;-63
2023/08/19 01:13:04;;;;;;;4.85;3.90;;;20.60;82.20;;;;;;5005322;28;20121;-62
2023/08/19 01:15:34;;;;;;;4.60;3.67;;;20.60;82.70;;;;;;5008667;28;20030;-63
2023/08/19 01:18:02;;;;;;;4.70;3.88;;;20.50;81.80;;;;;;5009186;28;20081;-62
2023/08/19 01:20:31;;;;;;;5.57;4.13;;;20.50;81.90;;;;;;5014450;28;20033;-62
2023/08/19 01:23:03;;;;;;;6.00;3.50;;;20.50;81.90;;;;;;5014212;28;20026;-62
2023/08/19 01:25:31;;;;;;;4.88;3.70;;;20.50;82.30;;;;;;5011736;28;20341;-63
2023/08/19 01:27:56;;;;;;;3.60;3.30;;;20.50;82.10;;;;;;5007244;28;20045;-62
2023/08/19 01:30:23;;;;;;;6.07;3.72;;;20.50;82.00;;;;;;5006322;28;20034;-62
2023/08/19 01:32:49;;;;;;;4.30;3.38;;;20.40;82.10;;;;;;5006530;28;20056;-62
2023/08/19 01:35:17;;;;;;;5.47;3.30;;;20.40;82.10;;;;;;5013473;28;20042;-63
2023/08/19 01:38:09;;;;;;;7.93;3.35;;;20.40;82.20;;;;;;5006242;28;20173;-62
2023/08/19 01:40:37;;;;;;;4.32;3.28;;;20.40;83.20;;;;;;5007859;28;20599;-64
2023/08/19 01:43:05;;;;;;;3.97;3.10;;;20.30;82.40;;;;;;5009166;28;20068;-62
2023/08/19 01:45:31;;;;;;;5.50;3.55;;;20.20;82.60;;;;;;5010200;28;20053;-65
2023/08/19 01:47:57;;;;;;;7.10;3.40;;;20.20;83.60;;;;;;5009227;28;20041;-65
2023/08/19 01:50:22;;;;;;;3.92;3.35;;;20.20;82.90;;;;;;5010142;28;20535;-65
2023/08/19 01:52:48;;;;;;;4.75;3.40;;;20.10;82.90;;;;;;5009782;28;20046;-64
2023/08/19 01:55:14;;;;;;;4.43;3.40;;;20.10;83.00;;;;;;5009165;28;20045;-64
2023/08/19 01:57:39;;;;;;;4.63;3.40;;;20.00;83.10;;;;;;5007403;28;20045;-65
2023/08/19 02:00:07;;;;;;;6.05;3.47;;;20.00;83.40;;;;;;5005375;28;20509;-65
2023/08/19 02:02:32;;;;;;;4.50;3.55;;;19.90;83.50;;;;;;4998347;28;20657;-66
2023/08/19 02:04:58;;;;;;;8.27;3.67;;;19.90;83.60;;;;;;4998024;28;20153;-66
2023/08/19 02:07:23;;;;;;;3.60;3.30;;;19.80;83.80;;;;;;5001204;28;20500;-64
2023/08/19 02:09:49;;;;;;;4.65;3.67;;;19.80;83.80;;;;;;5007994;28;20038;-64
2023/08/19 02:12:14;;;;;;;5.78;3.92;;;19.80;83.90;;;;;;5006678;28;20049;-63
2023/08/19 02:14:40;;;;;;;4.47;3.72;;;19.90;83.90;;;;;;5008874;28;20034;-62
2023/08/19 02:17:06;;;;;;;4.53;3.33;;;19.90;83.90;;;;;;5007057;28;20396;-63
2023/08/19 02:19:31;;;;;;;3.60;3.30;;;19.90;83.70;;;;;;5008752;28;20073;-63
2023/08/19 02:21:57;;;;;;;5.90;4.00;;;19.90;83.60;;;;;;5001809;28;20038;-61
2023/08/19 02:24:22;;;;;;;4.60;3.72;;;19.80;83.80;;;;;;5003791;28;20056;-62
2023/08/19 02:26:48;;;;;;;8.88;3.85;;;19.90;83.50;;;;;;5010664;28;20051;-62
2023/08/19 02:29:14;;;;;;;4.80;4.00;;;19.90;83.40;;;;;;5007591;28;20053;-62
2023/08/19 02:31:39;;;;;;;4.55;3.80;;;19.90;83.30;;;;;;5007737;28;20041;-61
2023/08/19 02:34:05;;;;;;;4.70;4.00;;;19.90;83.40;;;;;;5011491;28;20136;-61
2023/08/19 02:36:31;;;;;;;5.90;3.97;;;19.90;83.40;;;;;;5010605;28;20033;-62
2023/08/19 02:38:57;;;;;;;5.10;4.00;;;19.80;83.40;;;;;;5011361;28;21896;-63
2023/08/19 02:41:23;;;;;;;4.40;4.00;;;19.80;83.50;;;;;;5008117;28;20033;-62
2023/08/19 02:43:49;;;;;;;7.30;4.00;;;19.80;83.60;;;;;;5009062;28;20045;-62
2023/08/19 02:46:15;;;;;;;5.65;3.60;;;19.80;83.70;;;;;;5009908;28;20121;-62
2023/08/19 02:48:41;;;;;;;5.20;3.90;;;19.80;83.80;;;;;;5007237;28;20026;-62
2023/08/19 02:51:06;;;;;;;5.13;3.92;;;19.80;84.60;;;;;;5006596;28;20084;-62
2023/08/19 02:53:32;;;;;;;5.15;4.50;;;19.80;83.90;;;;;;5000734;28;20084;-63
2023/08/19 02:55:58;;;;;;;4.28;3.88;;;19.80;83.90;;;;;;4999256;28;20034;-62
2023/08/19 02:58:24;;;;;;;5.28;4.10;;;19.80;84.10;;;;;;5002221;28;20033;-62
2023/08/19 03:00:50;;;;;;;5.45;4.13;;;19.70;84.10;;;;;;4996789;28;20557;-62
2023/08/19 03:03:16;;;;;;;4.22;3.38;;;19.70;84.10;;;;;;4997429;28;20045;-62
2023/08/19 03:05:42;;;;;;;4.32;3.70;;;19.70;84.10;;;;;;4995635;28;20053;-62
2023/08/19 03:08:08;;;;;;;6.80;3.72;;;19.70;84.10;;;;;;4999642;28;20073;-62
2023/08/19 03:10:35;;;;;;;6.63;3.80;;;19.60;84.00;;;;;;4996104;28;20038;-63
2023/08/19 03:13:01;;;;;;;4.40;3.70;;;19.60;84.00;;;;;;5002706;28;20041;-62
2023/08/19 03:15:27;;;;;;;4.10;3.70;;;19.60;84.20;;;;;;5014449;28;20034;-62
2023/08/19 03:17:52;;;;;;;5.80;3.72;;;19.60;84.40;;;;;;5017660;28;20405;-62
2023/08/19 03:20:18;;;;;;;7.13;3.80;;;19.60;84.40;;;;;;5017744;28;20043;-62
2023/08/19 03:22:44;;;;;;;5.03;3.38;;;19.60;84.50;;;;;;5017334;28;20404;-63
2023/08/19 03:25:10;;;;;;;4.53;3.40;;;19.60;84.40;;;;;;5001868;28;20084;-63
2023/08/19 03:27:36;;;;;;;3.70;3.35;;;19.50;84.10;;;;;;4999429;28;20057;-63
2023/08/19 03:30:04;;;;;;;5.07;3.13;;;19.50;84.60;;;;;;5001028;28;20706;-65
2023/08/19 03:32:30;;;;;;;3.92;3.50;;;19.50;84.10;;;;;;5006137;28;20133;-62
2023/08/19 03:34:55;;;;;;;4.22;3.83;;;19.50;84.00;;;;;;5011591;28;20080;-63
2023/08/19 03:37:21;;;;;;;3.53;3.22;;;19.50;84.10;;;;;;5007521;28;20475;-62
2023/08/19 03:39:46;;;;;;;6.60;3.83;;;19.50;84.80;;;;;;5008633;28;20046;-62
2023/08/19 03:42:12;;;;;;;4.18;3.55;;;19.50;84.10;;;;;;5006428;28;20084;-60
2023/08/19 03:44:38;;;;;;;4.45;3.60;;;19.50;84.30;;;;;;5005846;28;20051;-62
2023/08/19 03:47:03;;;;;;;4.28;3.35;;;19.40;84.30;;;;;;5007971;28;20579;-61
2023/08/19 03:49:29;;;;;;;5.93;3.33;;;19.40;84.30;;;;;;5004414;28;20038;-62
2023/08/19 03:51:54;;;;;;;3.40;3.10;;;19.40;84.50;;;;;;5003261;28;20029;-62
2023/08/19 03:54:20;;;;;;;6.78;4.00;;;19.40;84.50;;;;;;4999594;28;20514;-62
2023/08/19 03:56:45;;;;;;;4.00;3.38;;;19.30;84.60;;;;;;4993563;28;20052;-63
2023/08/19 03:59:11;;;;;;;4.03;3.63;;;19.30;84.60;;;;;;5000485;28;20073;-62
2023/08/19 04:01:38;;;;;;;5.28;3.65;;;19.30;84.60;;;;;;4993863;28;20044;-63
2023/08/19 04:04:04;;;;;;;5.53;3.10;;;19.30;84.60;;;;;;4993672;28;20579;-65
2023/08/19 04:06:31;;;;;;;3.97;3.58;;;19.30;84.50;;;;;;4995014;28;20136;-61
2023/08/19 04:08:56;;;;;;;3.97;3.60;;;19.20;84.50;;;;;;4996707;28;20150;-62
2023/08/19 04:11:22;;;;;;;4.75;3.40;;;19.40;84.50;;;;;;4997127;28;20033;-62
2023/08/19 04:13:47;;;;;;;4.45;3.40;;;19.40;84.30;;;;;;4999752;28;20045;-62
2023/08/19 04:16:13;;;;;;;4.53;3.40;;;19.40;84.40;;;;;;4999241;28;20299;-61
2023/08/19 04:18:39;;;;;;;4.88;3.58;;;19.40;84.40;;;;;;4990122;28;20073;-64
2023/08/19 04:21:05;;;;;;;5.85;3.35;;;19.40;84.40;;;;;;4999408;28;20821;-61
2023/08/19 04:23:32;;;;;;;5.07;3.38;;;19.40;84.40;;;;;;4997080;28;20042;-62
2023/08/19 04:25:58;;;;;;;4.75;3.30;;;19.40;84.40;;;;;;4997842;28;20050;-64
2023/08/19 04:28:23;;;;;;;3.95;3.55;;;19.40;84.40;;;;;;4996761;28;20291;-61
2023/08/19 04:30:49;;;;;;;3.80;3.50;;;19.40;84.30;;;;;;4988321;28;20449;-62
2023/08/19 04:33:14;;;;;;;4.25;3.58;;;19.40;84.30;;;;;;5010213;28;20034;-62
2023/08/19 04:35:40;;;;;;;5.25;3.67;;;19.40;84.20;;;;;;5013840;28;20117;-62
2023/08/19 04:38:06;;;;;;;4.68;3.95;;;19.40;85.00;;;;;;5011424;28;20029;-60
2023/08/19 04:40:31;;;;;;;5.18;3.78;;;19.40;84.00;;;;;;5007996;28;20148;-62
2023/08/19 04:42:57;;;;;;;4.28;3.55;;;19.40;84.20;;;;;;5003274;28;20040;-63
2023/08/19 04:45:24;;;;;;;6.50;3.70;;;19.40;84.40;;;;;;5010725;28;20764;-61
2023/08/19 04:47:50;;;;;;;5.57;3.63;;;19.40;84.50;;;;;;5009367;28;20124;-64
2023/08/19 04:50:16;;;;;;;4.32;3.75;;;19.40;84.60;;;;;;5010943;28;20574;-64
2023/08/19 04:52:42;;;;;;;4.90;3.55;;;19.40;84.60;;;;;;5007534;28;20041;-64
2023/08/19 04:55:08;;;;;;;3.80;3.42;;;19.30;84.70;;;;;;5007260;28;20092;-64
2023/08/19 04:57:34;;;;;;;3.92;3.63;;;19.30;84.80;;;;;;5006096;28;20418;-64
2023/08/19 04:59:59;;;;;;;5.57;3.67;;;19.30;85.00;;;;;;5008916;28;20041;-66
2023/08/19 05:02:25;;;;;;;7.65;3.97;;;19.30;85.00;;;;;;5007874;28;20133;-64
2023/08/19 05:04:51;;;;;;;4.32;3.88;;;19.30;85.10;;;;;;5008336;28;20095;-63
2023/08/19 05:07:16;;;;;;;5.00;3.58;;;19.30;85.20;;;;;;5009929;28;20053;-64
2023/08/19 05:09:42;;;;;;;4.20;3.80;;;19.20;85.20;;;;;;5004462;28;20038;-64
2023/08/19 05:12:08;;;;;;;4.50;4.10;;;19.20;85.20;;;;;;5007721;28;20029;-64
2023/08/19 05:14:34;;;;;;;6.38;4.45;;;19.20;85.30;;;;;;5012092;28;20048;-64
2023/08/19 05:17:00;;;;;;;4.72;4.15;;;19.20;85.70;;;;;;5008672;28;20029;-64
2023/08/19 05:19:25;;;;;;;4.68;4.20;;;19.10;85.90;;;;;;5011696;28;20030;-64
2023/08/19 05:21:51;;;;;;;6.78;4.38;;;19.20;86.00;;;;;;5012607;28;20045;-64
2023/08/19 05:24:18;;;;;;;4.75;4.35;;;19.10;86.20;;;;;;5010427;28;20038;-63
2023/08/19 05:26:44;;;;;;;4.80;4.20;;;19.10;86.40;;;;;;5007796;28;20033;-64
2023/08/19 05:29:11;;;;;;;6.32;4.60;;;19.20;86.60;;;;;;5003948;28;20029;-64
2023/08/19 05:31:37;;;;;;;4.95;4.55;;;19.20;86.70;;;;;;5001729;28;20034;-64
2023/08/19 05:34:03;;;;;;;5.35;4.78;;;19.20;87.00;;;;;;4993881;28;20103;-64
2023/08/19 05:36:28;;;;;;;9.18;5.10;;;19.20;87.20;;;;;;4996594;28;20458;-64
2023/08/19 05:38:54;;;;;;;6.78;5.25;;;19.30;87.40;;;;;;4996560;28;20030;-64
2023/08/19 05:41:19;;;;;;;9.45;5.43;;;19.30;87.60;;;;;;5007062;28;20065;-65
2023/08/19 05:43:45;;;;;;;6.07;5.03;;;19.30;87.80;;;;;;5004558;28;20050;-64
2023/08/19 05:46:11;;;;;;;6.22;5.25;;;19.40;87.90;;;;;;4992892;28;20099;-64
2023/08/19 05:48:36;;;;;;;5.88;4.95;;;19.50;88.10;;;;;;4994998;28;20041;-63
2023/08/19 05:51:03;;;;;;;6.28;4.68;;;19.50;88.10;;;;;;4994220;28;20072;-64
2023/08/19 05:53:28;;;;;;;6.03;5.43;;;19.60;88.20;;;;;;4999729;28;20033;-61
2023/08/19 05:55:54;;;;;;;7.43;5.57;;;19.60;88.40;;;;;;5004237;28;20033;-63
2023/08/19 05:58:19;;;;;;;5.25;4.70;;;19.70;88.50;;;;;;5008446;28;20117;-64
2023/08/19 06:00:45;;;;;;;6.28;5.53;;;19.70;88.50;;;;;;5004282;28;20662;-64
2023/08/19 06:03:11;;;;;;;7.35;5.43;;;19.80;88.40;;;;;;5004193;28;20034;-64
2023/08/19 06:05:36;;;;;;;6.85;5.38;;;19.90;88.50;;;;;;5002896;28;20073;-63
2023/08/19 06:08:04;;;;;;;6.82;5.75;;;19.90;89.30;;;;;;4983421;28;20045;-63
2023/08/19 06:10:30;;;;;;;8.40;5.65;;;20.00;88.50;;;;;;5003395;28;20042;-64
2023/08/19 06:12:56;;;;;;;7.72;6.10;;;20.10;88.50;;;;;;5008550;28;20061;-64
2023/08/19 06:15:22;;;;;;;8.68;6.78;;;20.20;88.70;;;;;;5007033;28;20066;-65
2023/08/19 06:17:47;;;;;;;7.15;6.45;;;20.30;89.00;;;;;;5000301;28;20952;-64
2023/08/19 06:20:13;;;;;;;8.30;6.80;;;20.30;89.30;;;;;;4994070;28;20173;-64
2023/08/19 06:22:39;;;;;;;7.57;6.55;;;20.40;89.40;;;;;;5003119;28;20045;-63
2023/08/19 06:25:05;;;;;;;8.88;6.53;;;20.50;89.60;;;;;;5007951;28;20590;-63
2023/08/19 06:27:31;;;;;;;8.95;8.05;;;20.50;89.50;;;;;;5010975;28;20643;-64
2023/08/19 06:29:56;;;;;;;9.60;7.90;;;20.60;89.00;;;;;;5008694;28;20133;-63
2023/08/19 06:32:22;;;;;;;8.85;7.65;;;20.70;88.80;;;;;;5016713;28;20440;-65
2023/08/19 06:34:48;;;;;;;8.43;7.47;;;20.80;88.80;;;;;;4993509;28;20050;-63
2023/08/19 06:37:19;;;;;;;8.00;6.95;;;20.80;88.80;;;;;;4991564;28;20513;-65
2023/08/19 06:39:49;;;;;;;7.82;7.03;;;20.90;88.80;;;;;;4996935;28;20038;-64
2023/08/19 06:42:16;;;;;;;11.43;7.38;;;21.00;88.60;;;;;;4999339;28;20034;-64
2023/08/19 06:47:02;;;;;;;9.98;7.35;;;21.10;88.60;;;22.25;63.49;95776.91;4930513;28;20412;-63
2023/08/19 06:49:28;;;;;;;8.13;7.20;;;21.20;88.10;;;22.29;63.43;95777.59;4882146;28;62218;-63
2023/08/19 06:52:19;;;;;;;11.02;7.25;;;21.30;87.90;;;;;;5020879;27;21012;-63
2023/08/19 06:54:45;;;;;;;7.78;6.85;;;21.40;87.80;;;;;;5045642;28;20041;-64
2023/08/19 06:57:17;;;;;;;8.65;7.10;;;21.40;87.50;;;;;;5034374;28;20045;-63
2023/08/19 06:59:47;;;;;;;8.95;6.85;;;21.50;87.40;;;;;;5022163;28;20617;-63
2023/08/19 07:02:16;;;;;;;7.88;6.70;;;21.60;87.60;;;;;;5033993;28;20037;-64
2023/08/19 07:04:45;;;;;;;7.78;6.97;;;21.70;87.00;;;;;;4993923;28;20045;-63
2023/08/19 07:07:11;;;;;;;17.63;6.38;;;21.80;86.50;;;;;;5015244;28;20144;-63
2023/08/19 07:09:37;;;;;;;8.68;6.53;;;21.80;86.40;;;;;;4989313;28;20560;-60
2023/08/19 07:12:03;;;;;;;8.32;6.60;;;21.90;86.00;;;;;;5048189;28;20063;-64
2023/08/19 07:14:30;;;;;;;7.20;6.50;;;22.00;85.90;;;;;;5028023;28;20044;-64
2023/08/19 07:16:59;;;;;;;7.40;6.60;;;22.10;86.00;;;;;;5048968;28;20045;-62
2023/08/19 07:19:37;;;;;;;8.55;6.45;;;22.10;85.90;;;;;;5036895;28;20033;-64
2023/08/19 07:22:04;;;;;;;7.97;6.68;;;22.20;86.40;;;;;;5047187;28;20041;-63
2023/08/19 07:24:31;;;;;;;10.10;6.70;;;22.30;85.70;;;;;;5041382;28;20050;-64
2023/08/19 07:27:00;;;;;;;9.98;6.65;;;22.40;85.50;;;;;;5040980;28;20061;-64
2023/08/19 07:29:25;;;;;;;8.23;6.07;;;22.50;85.40;;;;;;5041749;28;20037;-63
2023/08/19 07:31:52;;;;;;;7.07;5.75;;;22.60;85.50;;;;;;5040359;28;20052;-63
2023/08/19 07:34:19;;;;;;;8.65;5.35;;;22.70;85.70;;;;;;5043128;28;20036;-63
2023/08/19 07:36:44;;;;;;;11.10;6.07;;;22.80;85.40;;;;;;5034920;28;20044;-63
2023/08/19 07:39:10;;;;;;;7.25;5.68;;;22.90;85.00;;;;;;5034938;28;20037;-64
2023/08/19 07:41:36;;;;;;;7.30;5.50;;;23.00;84.50;;;;;;5030904;28;20080;-65
2023/08/19 07:44:01;;;;;;;7.28;5.72;;;23.00;84.00;;;;;;5040376;28;20044;-63
2023/08/19 07:46:28;;;;;;;7.78;6.30;;;23.10;83.80;;;;;;5036796;28;20053;-63
2023/08/19 07:48:54;;;;;;;8.65;5.32;;;23.20;83.80;;;;;;5042124;28;20091;-63
2023/08/19 07:51:20;;;;;;;7.75;5.55;;;23.30;83.30;;;;;;5036769;28;20044;-64
2023/08/19 07:53:45;;;;;;;7.95;5.47;;;23.40;83.40;;;;;;5045132;28;20123;-62
2023/08/19 07:56:11;;;;;;;5.60;4.78;;;23.50;83.20;;;;;;5036661;28;20044;-63
2023/08/19 07:58:36;;;;;;;5.82;4.32;;;23.60;82.90;;;;;;5037052;28;20033;-63
2023/08/19 08:01:02;;;;;;;8.95;5.10;;;23.70;82.60;;;;;;5036065;28;20033;-63
2023/08/19 08:03:28;;;;;;;9.70;5.10;;;23.80;81.80;;;;;;5028143;28;20033;-63
2023/08/19 08:05:54;;;;;;;8.25;5.20;;;23.90;81.20;;;;;;5032122;28;20037;-63
2023/08/19 08:08:19;;;;;;;7.80;4.75;;;24.00;80.70;;;;;;5034773;28;20041;-61
2023/08/19 08:10:45;;;;;;;5.30;4.32;;;24.10;80.30;;;;;;5023431;28;20077;-61
2023/08/19 08:13:10;;;;;;;5.35;3.92;;;24.20;80.10;;;;;;5032061;28;20037;-63
2023/08/19 08:15:36;;;;;;;5.53;3.90;;;24.30;80.10;;;;;;5026443;28;20151;-62
2023/08/19 08:18:02;;;;;;;3.83;3.40;;;24.40;80.00;;;;;;5031902;28;20045;-63
2023/08/19 08:20:27;;;;;;;5.05;3.22;;;24.50;79.80;;;;;;5029212;28;20404;-64
2023/08/19 08:22:53;;;;;;;5.65;3.30;;;24.60;79.40;;;;;;5029785;28;20084;-64
2023/08/19 08:25:19;;;;;;;3.47;3.10;;;24.70;78.20;;;;;;5029793;28;20038;-65
2023/08/19 08:27:45;;;;;;;6.72;3.05;;;24.80;77.90;;;;;;5035512;28;20505;-64
2023/08/19 08:30:11;;;;;;;6.50;3.55;;;24.90;77.50;;;;;;5030626;28;20043;-63
2023/08/19 08:32:37;;;;;;;5.57;3.50;;;25.00;77.50;;;;;;5030011;28;20029;-64
2023/08/19 08:35:03;;;;;;;5.50;3.15;;;25.10;76.50;;;;;;5033835;28;20029;-63
2023/08/19 08:37:29;;;;;;;4.55;2.95;;;25.20;75.80;;;;;;5034988;28;20039;-63
2023/08/19 08:39:54;;;;;;;5.70;3.70;;;25.30;74.60;;;;;;5033894;28;20029;-63
2023/08/19 08:42:21;;;;;;;3.55;2.65;;;25.40;73.90;;;;;;5026339;28;20098;-64
2023/08/19 08:44:48;;;;;;;4.35;3.33;;;25.50;73.30;;;;;;5034240;28;20056;-62
2023/08/19 08:47:15;;;;;;;6.70;3.20;;;25.60;72.70;;;;;;5032325;28;20030;-64
2023/08/19 08:49:46;;;;;;;6.68;3.03;;;25.70;72.10;;;;;;5033579;28;20052;-64
2023/08/19 08:52:11;;;;;;;4.93;2.88;;;25.80;71.60;;;;;;5034903;28;20494;-63
2023/08/19 08:54:39;;;;;;;5.85;2.78;;;25.90;70.90;;;;;;5034435;28;20029;-64
2023/08/19 08:57:04;;;;;;;3.40;2.92;;;26.00;70.80;;;;;;5035878;28;20040;-64
2023/08/19 08:59:30;;;;;;;5.95;3.20;;;26.10;70.00;;;;;;5035239;28;20116;-64
2023/08/19 09:01:58;;;;;;;6.30;3.03;;;26.20;69.40;;;;;;5033284;28;20045;-64
2023/08/19 09:04:25;;;;;;;3.83;2.67;;;26.30;69.80;;;;;;5035529;28;20037;-64
2023/08/19 09:07:00;;;;;;;6.72;3.08;;;26.40;69.80;;;;;;5036454;28;20041;-64
2023/08/19 09:09:29;;;;;;;5.15;2.70;;;26.50;69.10;;;;;;5035813;28;20037;-64
2023/08/19 09:11:58;;;;;;;5.90;3.13;;;26.60;69.10;;;;;;5032460;28;20048;-64
2023/08/19 09:14:39;;;;;;;4.47;2.67;;;26.70;69.30;;;;;;5035131;28;20037;-64
2023/08/19 09:17:06;;;;;;;7.50;3.05;;;26.80;67.20;;;;;;5035205;28;20127;-64
2023/08/19 09:19:32;;;;;;;4.47;3.00;;;26.90;67.40;;;;;;5034919;28;20115;-64
2023/08/19 09:21:57;;;;;;;5.97;3.17;;;27.00;67.30;;;;;;5035041;28;20059;-64
2023/08/19 09:24:23;;;;;;;3.50;3.00;;;27.10;67.10;;;;;;5035184;28;20067;-65
2023/08/19 09:26:56;;;;;;;6.75;3.60;;;27.20;67.00;;;;;;5035379;28;20033;-64
2023/08/19 09:29:23;;;;;;;5.10;2.70;;;27.30;65.00;;;;;;5032866;28;20058;-64
2023/08/19 09:31:53;;;;;;;4.13;2.95;;;27.40;66.10;;;;;;5032693;28;20443;-63
2023/08/19 09:34:19;;;;;;;7.28;3.13;;;27.50;65.60;;;;;;5036843;28;20463;-64
2023/08/19 09:36:44;;;;;;;5.60;3.13;;;27.60;65.90;;;;;;5031259;28;20037;-64
2023/08/19 09:39:10;;;;;;;3.35;3.05;;;27.60;65.10;;;;;;5033890;28;20040;-64
2023/08/19 09:41:38;;;;;;;5.28;3.17;;;27.70;64.90;;;;;;5034923;28;20041;-64
2023/08/19 09:44:12;;;;;;;6.28;3.10;;;27.80;64.80;;;;;;5031620;28;20405;-64
2023/08/19 09:46:38;;;;;;;5.88;3.20;;;27.90;62.70;;;;;;5034535;28;20505;-64
2023/08/19 09:49:04;;;;;;;6.32;3.05;;;28.00;64.20;;;;;;5033263;28;20051;-63
2023/08/19 09:51:29;;;;;;;4.22;3.20;;;28.10;64.50;;;;;;5032040;28;20564;-63
2023/08/19 09:53:55;;;;;;;3.53;3.10;;;28.20;64.10;;;;;;5031428;28;20064;-64
2023/08/19 09:56:25;;;;;;;5.35;2.90;;;28.30;63.80;;;;;;5035302;28;20036;-64
2023/08/19 09:58:53;;;;;;;6.65;2.88;;;28.40;63.70;;;;;;5032578;28;20108;-64
2023/08/19 10:01:20;;;;;;;5.20;2.83;;;28.50;62.90;;;;;;5027164;28;20037;-63
2023/08/19 10:03:47;;;;;;;5.40;2.72;;;28.50;63.20;;;;;;5034476;28;20049;-64
2023/08/19 10:06:16;;;;;;;8.00;3.03;;;28.60;63.10;;;;;;5036789;28;20060;-64
2023/08/19 10:08:45;;;;;;;6.88;2.70;;;28.70;61.60;;;;;;5037293;28;20028;-64
2023/08/19 10:11:14;;;;;;;3.45;2.85;;;28.80;62.70;;;;;;5033883;28;20120;-64
2023/08/19 10:13:41;;;;;;;7.35;3.35;;;28.90;62.00;;;;;;5037529;28;20156;-64
2023/08/19 10:16:06;;;;;;;3.70;2.97;;;29.00;62.90;;;;;;5036893;28;20140;-63
2023/08/19 10:18:36;;;;;;;5.28;2.90;;;29.10;62.70;;;;;;5034029;28;20556;-64
2023/08/19 10:21:06;;;;;;;3.72;2.72;;;29.20;60.90;;;;;;5033441;28;20064;-64
2023/08/19 10:23:33;;;;;;;4.30;2.65;;;29.30;60.40;;;;;;5033675;28;20064;-64
2023/08/19 10:26:00;;;;;;;6.28;3.00;;;29.40;60.10;;;;;;5033644;28;20086;-64
2023/08/19 10:28:27;;;;;;;4.15;2.55;;;29.40;60.50;;;;;;5034059;28;20488;-64
2023/08/19 10:31:13;;;;;;;4.05;3.05;;;29.50;60.60;;;;;;5034624;28;20404;-64
2023/08/19 10:33:45;;;;;;;4.30;2.83;;;29.60;60.00;;;;;;5034069;28;20118;-64
2023/08/19 10:36:20;;;;;;;5.75;2.75;;;29.70;59.70;;;;;;5031575;28;20389;-64
2023/08/19 10:38:55;;;;;;;3.75;2.90;;;29.80;59.10;;;;;;5031457;28;20034;-64
2023/08/19 10:41:28;;;;;;;5.65;2.45;;;29.80;59.70;;;;;;5035753;28;20057;-65
2023/08/19 10:43:55;;;;;;;4.60;2.85;;;29.90;59.00;;;;;;5032935;28;20496;-63
2023/08/19 10:46:29;;;;;;;6.97;3.00;;;30.00;59.50;;;;;;5028800;28;20167;-64
2023/08/19 10:48:55;;;;;;;4.78;2.53;;;30.10;59.10;;;;;;5030675;28;20083;-63
2023/08/19 10:51:40;;;;;;;3.35;2.63;;;30.10;59.20;;;;;;5028042;28;20068;-64
2023/08/19 10:54:06;;;;;;;7.28;2.80;;;30.20;58.60;;;;;;5030496;28;20067;-64
2023/08/19 10:56:32;;;;;;;6.35;2.60;;;30.30;58.70;;;;;;5025849;28;20041;-64
2023/08/19 10:58:58;;;;;;;3.83;2.75;;;30.30;58.50;;;;;;5027091;28;20090;-65
2023/08/19 11:01:30;;;;;;;5.40;2.63;;;30.40;58.20;;;;;;5027161;28;20128;-65
2023/08/19 11:03:58;;;;;;;4.60;3.13;;;30.50;58.20;;;;;;5030419;28;20401;-64
2023/08/19 11:06:29;;;;;;;3.55;2.58;;;30.50;58.30;;;;;;5031794;28;20310;-64
2023/08/19 11:08:59;;;;;;;3.33;2.60;;;30.60;58.00;;;;;;5031798;28;20515;-64
2023/08/19 11:11:24;;;;;;;4.30;2.67;;;30.70;58.40;;;;;;5029591;28;20420;-65
2023/08/19 11:13:51;;;;;;;4.38;2.30;;;30.70;58.00;;;;;;5033689;28;20056;-65
2023/08/19 11:16:16;;;;;;;4.25;2.50;;;30.80;57.80;;;;;;5033996;28;20068;-64
2023/08/19 11:18:42;;;;;;;4.75;2.58;;;30.80;57.10;;;;;;5035025;28;20115;-65
2023/08/19 11:21:08;;;;;;;4.80;2.50;;;30.90;56.80;;;;;;5033350;28;20294;-64
2023/08/19 11:23:33;;;;;;;6.40;2.60;;;30.90;56.20;;;;;;5033141;28;20431;-64
2023/08/19 11:25:59;;;;;;;14.73;3.03;;;31.00;55.60;;;;;;5027792;28;20065;-64
2023/08/19 11:28:25;;;;;;;7.93;2.60;;;31.00;55.60;;;;;;5028184;28;20128;-64
2023/08/19 11:30:51;;;;;;;3.90;2.38;;;31.10;55.20;;;;;;5029020;28;20037;-64
2023/08/19 11:33:18;;;;;;;4.28;2.30;;;31.10;55.20;;;;;;5032517;28;20073;-64
2023/08/19 11:35:45;;;;;;;3.42;2.75;;;31.20;55.20;;;;;;5033135;28;20033;-65
2023/08/19 11:38:17;;;;;;;4.95;2.50;;;31.20;55.80;;;;;;5033593;28;20071;-64
2023/08/19 11:40:43;;;;;;;7.63;2.60;;;31.30;55.10;;;;;;5035096;28;20055;-65
2023/08/19 11:43:11;;;;;;;4.65;2.47;;;31.30;55.50;;;;;;5035660;28;20047;-64
2023/08/19 11:45:41;;;;;;;3.58;2.40;;;31.40;55.20;;;;;;5035220;28;20461;-66
2023/08/19 11:48:16;;;;;;;4.18;2.50;;;31.50;54.40;;;;;;5024590;28;20417;-64
2023/08/19 11:50:49;;;;;;;5.80;2.50;;;31.50;53.80;;;;;;5024861;28;21931;-65
2023/08/19 11:53:28;;;;;;;15.10;2.50;;;31.60;53.80;;;;;;5033763;28;20407;-64
2023/08/19 11:56:00;;;;;;;5.90;2.50;;;31.70;54.20;;;;;;5037123;28;20029;-65
2023/08/19 11:58:39;;;;;;;4.82;2.53;;;31.70;53.80;;;;;;5034182;28;20500;-64
2023/08/19 12:01:05;;;;;;;3.22;2.50;;;31.80;53.60;;;;;;5035544;28;20044;-64
2023/08/19 12:03:30;;;;;;;6.90;2.20;;;31.80;53.90;;;;;;5033509;28;20378;-65
2023/08/19 12:05:57;;;;;;;3.67;2.35;;;31.90;53.80;;;;;;5038327;28;20171;-64
2023/08/19 12:08:32;;;;;;;3.20;2.33;;;31.90;53.80;;;;;;5036191;28;20400;-64
2023/08/19 12:10:58;;;;;;;4.45;2.70;;;32.00;53.60;;;;;;5027374;28;20517;-66
2023/08/19 12:13:27;;;;;;;5.38;2.55;;;32.00;53.50;;;;;;5028936;28;20091;-65
2023/08/19 12:15:54;;;;;;;6.35;2.60;;;32.10;53.80;;;;;;5020341;28;20076;-64
2023/08/19 12:18:19;;;;;;;6.22;2.33;;;32.10;52.70;;;;;;5027213;28;20065;-64
2023/08/19 12:20:46;;;;;;;3.47;2.67;;;32.20;53.20;;;;;;5025552;28;21061;-63
2023/08/19 12:23:12;;;;;;;3.75;2.45;;;32.20;52.90;;;;;;5028046;28;20073;-64
2023/08/19 12:25:50;;;;;;;4.57;2.20;;;32.30;53.00;;;;;;5027491;28;20034;-63
2023/08/19 12:28:16;;;;;;;4.68;2.40;;;32.30;52.30;;;;;;5028359;28;20060;-63
2023/08/19 12:30:42;;;;;;;6.75;2.47;;;32.30;52.90;;;;;;5029462;28;20041;-65
2023/08/19 12:33:07;;;;;;;3.55;2.47;;;32.40;52.40;;;;;;5028072;28;20091;-64
2023/08/19 12:35:35;;;;;;;3.03;2.33;;;32.40;52.50;;;;;;5028692;28;20033;-64
2023/08/19 12:38:01;;;;;;;4.53;2.55;;;32.40;52.20;;;;;;5018923;28;20116;-63
2023/08/19 12:40:26;;;;;;;9.27;2.70;;;32.50;51.70;;;;;;5029295;28;20148;-64
2023/08/19 12:42:53;;;;;;;4.07;2.45;;;32.50;51.30;;;;;;5030123;28;20175;-63
2023/08/19 12:45:19;;;;;;;6.97;2.60;;;32.50;51.00;;;;;;5034963;28;20029;-64
2023/08/19 12:47:47;;;;;;;3.60;2.42;;;32.60;50.60;;;;;;5037426;28;20036;-64